createdAt,value
2019-03-23T00:00:01.186Z,0.04
2019-03-23T00:05:01.085Z,0.28
2019-03-23T00:10:01.087Z,0.40
2019-03-23T00:15:01.075Z,0.13
2019-03-23T00:20:01.613Z,0.18
2019-03-23T00:25:01.122Z,0.18
2019-03-23T00:30:01.121Z,0.24
2019-03-23T00:35:01.864Z,0.29
2019-03-23T00:40:01.378Z,0.00
2019-03-23T00:45:01.075Z,0.15
2019-03-23T00:50:01.088Z,0.64
2019-03-23T00:55:01.106Z,0.81
2019-03-23T01:00:01.100Z,0.02
2019-03-23T01:05:01.071Z,0.00
2019-03-23T01:10:01.049Z,0.00
2019-03-23T01:15:01.154Z,0.00
2019-03-23T01:20:01.075Z,0.56
2019-03-23T01:25:01.153Z,0.46
2019-03-23T01:30:01.184Z,0.38
2019-03-23T01:35:01.165Z,0.36
2019-03-23T01:40:01.062Z,0.04
2019-03-23T01:45:01.174Z,0.29
2019-03-23T01:50:01.155Z,0.30
2019-03-23T01:55:01.122Z,0.57
2019-03-23T02:00:01.048Z,0.72
2019-03-23T02:05:01.088Z,0.06
2019-03-23T02:10:03.211Z,0.42
2019-03-23T02:15:01.464Z,0.20
2019-03-23T02:20:01.035Z,0.03
2019-03-23T02:25:01.371Z,0.48
2019-03-23T02:30:01.044Z,0.13
2019-03-23T02:35:01.518Z,0.39
2019-03-23T02:40:01.102Z,0.20
2019-03-23T02:45:01.105Z,0.23
2019-03-23T02:50:01.056Z,0.36
2019-03-23T02:55:01.215Z,0.26
2019-03-23T03:00:01.137Z,0.00
2019-03-23T03:05:01.077Z,0.00
2019-03-23T03:10:01.124Z,0.00
2019-03-23T03:15:01.148Z,0.14
2019-03-23T03:20:01.423Z,0.10
2019-03-23T03:25:01.078Z,0.21
2019-03-23T03:30:01.170Z,0.19
2019-03-23T03:35:01.112Z,0.13
2019-03-23T03:40:01.092Z,0.00
2019-03-23T03:45:01.121Z,0.05
2019-03-23T03:50:01.075Z,0.59
2019-03-23T03:55:01.263Z,0.02
2019-03-23T04:00:01.071Z,0.10
2019-03-23T04:05:01.365Z,0.68
2019-03-23T04:10:03.142Z,0.32
2019-03-23T04:15:02.096Z,0.34
2019-03-23T04:20:01.081Z,0.00
2019-03-23T04:25:01.660Z,0.02
2019-03-23T04:30:04.067Z,0.17
2019-03-23T04:35:04.569Z,0.36
2019-03-23T04:40:01.061Z,0.62
2019-03-23T04:45:01.331Z,0.57
2019-03-23T04:50:01.057Z,0.36
2019-03-23T04:55:01.240Z,0.16
2019-03-23T05:00:01.124Z,0.15
2019-03-23T05:05:01.090Z,0.43
2019-03-23T05:10:01.287Z,0.09
2019-03-23T05:15:01.168Z,0.05
2019-03-23T05:20:01.540Z,0.49
2019-03-23T05:25:03.150Z,0.35
2019-03-23T05:30:01.097Z,0.10
2019-03-23T05:35:01.099Z,0.51
2019-03-23T05:40:01.095Z,0.24
2019-03-23T05:45:01.303Z,0.18
2019-03-23T05:50:01.027Z,0.00
2019-03-23T05:55:03.596Z,0.00
2019-03-23T06:00:01.348Z,0.00
2019-03-23T06:05:01.134Z,0.00
2019-03-23T06:10:01.097Z,0.00
2019-03-23T06:15:01.106Z,0.23
2019-03-23T06:20:01.114Z,0.00
2019-03-23T06:25:01.053Z,0.01
2019-03-23T06:30:01.041Z,0.00
2019-03-23T06:35:01.247Z,0.24
2019-03-23T06:40:01.378Z,0.28
2019-03-23T06:45:01.093Z,0.01
2019-03-23T06:50:01.060Z,0.00
2019-03-23T06:55:01.274Z,0.53
2019-03-23T07:00:01.072Z,0.25
2019-03-23T07:05:01.479Z,0.65
2019-03-23T07:10:02.850Z,0.41
2019-03-23T07:15:01.094Z,0.12
2019-03-23T07:20:01.094Z,0.00
2019-03-23T07:25:05.975Z,0.11
2019-03-23T07:30:01.109Z,0.09
2019-03-23T07:35:01.056Z,0.14
2019-03-23T07:40:03.821Z,0.56
2019-03-23T07:45:01.036Z,0.33
2019-03-23T07:50:01.147Z,0.37
2019-03-23T07:55:01.067Z,0.68
2019-03-23T08:00:01.086Z,1.78
2019-03-23T08:05:02.250Z,0.70
2019-03-23T08:10:01.066Z,0.98
2019-03-23T08:15:01.135Z,1.01
2019-03-23T08:20:01.094Z,1.08
2019-03-23T08:25:01.089Z,0.49
2019-03-23T08:30:01.384Z,1.33
2019-03-23T08:35:03.839Z,1.87
2019-03-23T08:40:01.103Z,1.30
2019-03-23T08:45:01.461Z,0.96
2019-03-23T08:50:01.067Z,0.90
2019-03-23T08:55:01.711Z,1.91
2019-03-23T09:00:01.123Z,1.84
2019-03-23T09:05:02.112Z,2.38
2019-03-23T09:10:01.105Z,1.48
2019-03-23T09:15:01.148Z,2.36
2019-03-23T09:20:03.819Z,1.70
2019-03-23T09:25:01.106Z,1.99
2019-03-23T09:30:02.993Z,2.52
2019-03-23T09:35:02.320Z,3.16
2019-03-23T09:40:10.123Z,2.14
2019-03-23T09:45:01.129Z,2.84
2019-03-23T09:50:01.165Z,1.81
2019-03-23T09:55:01.088Z,1.23
2019-03-23T10:00:01.128Z,1.53
2019-03-23T10:05:01.276Z,2.40
2019-03-23T10:10:01.122Z,0.56
2019-03-23T10:15:01.283Z,1.66
2019-03-23T10:20:01.075Z,1.13
2019-03-23T10:25:01.110Z,1.31
2019-03-23T10:30:01.427Z,2.13
2019-03-23T10:35:01.094Z,2.06
2019-03-23T10:40:01.119Z,2.23
2019-03-23T10:45:01.434Z,2.19
2019-03-23T10:50:01.747Z,2.09
2019-03-23T10:55:01.081Z,1.48
2019-03-23T11:00:01.660Z,1.60
2019-03-23T11:05:01.224Z,1.35
2019-03-23T11:10:01.103Z,1.58
2019-03-23T11:15:01.113Z,2.37
2019-03-23T11:20:01.087Z,1.47
2019-03-23T11:25:01.534Z,1.19
2019-03-23T11:30:01.146Z,1.48
2019-03-23T11:35:01.150Z,0.86
2019-03-23T11:40:01.116Z,1.87
2019-03-23T11:45:01.138Z,2.13
2019-03-23T11:50:02.082Z,1.76
2019-03-23T11:55:01.141Z,1.60
2019-03-23T12:00:01.169Z,2.15
2019-03-23T12:05:01.566Z,1.57
2019-03-23T12:10:01.189Z,1.34
2019-03-23T12:15:01.417Z,1.96
2019-03-23T12:20:01.260Z,1.64
2019-03-23T12:25:01.516Z,2.09
2019-03-23T12:30:07.009Z,1.25
2019-03-23T12:35:01.163Z,1.73
2019-03-23T12:40:01.126Z,1.74
2019-03-23T12:45:03.838Z,2.33
2019-03-23T12:50:01.212Z,2.67
2019-03-23T12:55:01.869Z,2.03
2019-03-23T13:00:03.679Z,0.99
2019-03-23T13:05:01.107Z,1.62
2019-03-23T13:10:01.572Z,1.59
2019-03-23T13:15:01.095Z,1.55
2019-03-23T13:20:01.217Z,2.25
2019-03-23T13:25:01.085Z,2.21
2019-03-23T13:30:01.463Z,1.45
2019-03-23T13:35:01.092Z,2.85
2019-03-23T13:40:01.521Z,1.74
2019-03-23T13:45:01.175Z,0.62
2019-03-23T13:50:01.582Z,1.25
2019-03-23T13:55:01.100Z,2.66
2019-03-23T14:00:01.211Z,2.07
2019-03-23T14:05:01.269Z,1.30
2019-03-23T14:10:01.534Z,1.86
2019-03-23T14:15:01.566Z,3.08
2019-03-23T14:20:01.111Z,2.16
2019-03-23T14:25:01.142Z,3.00
2019-03-23T14:30:01.387Z,2.08
2019-03-23T14:35:01.330Z,3.13
2019-03-23T14:40:01.089Z,1.86
2019-03-23T14:45:01.078Z,1.93
2019-03-23T14:50:01.120Z,1.67
2019-03-23T14:55:01.150Z,1.42
2019-03-23T15:00:01.091Z,2.62
2019-03-23T15:05:01.055Z,2.05
2019-03-23T15:10:01.141Z,2.48
2019-03-23T15:15:01.061Z,2.22
2019-03-23T15:20:01.114Z,3.65
2019-03-23T15:25:01.097Z,1.82
2019-03-23T15:30:01.155Z,2.29
2019-03-23T15:35:01.127Z,2.96
2019-03-23T15:40:01.180Z,2.09
2019-03-23T15:45:01.099Z,2.85
2019-03-23T15:50:01.382Z,2.29
2019-03-23T15:55:12.855Z,2.29
2019-03-23T16:00:01.185Z,2.46
2019-03-23T16:05:01.091Z,2.26
2019-03-23T16:10:01.427Z,1.50
2019-03-23T16:15:01.107Z,1.22
2019-03-23T16:20:01.073Z,2.16
2019-03-23T16:25:01.262Z,0.66
2019-03-23T16:30:01.073Z,1.20
2019-03-23T16:35:01.132Z,0.66
2019-03-23T16:40:07.345Z,0.87
2019-03-23T16:45:01.110Z,1.04
2019-03-23T16:50:01.463Z,1.19
2019-03-23T16:55:01.071Z,1.31
2019-03-23T17:00:01.086Z,1.18
2019-03-23T17:05:01.084Z,1.36
2019-03-23T17:10:01.093Z,1.36
2019-03-23T17:15:01.341Z,1.28
2019-03-23T17:20:01.056Z,1.66
2019-03-23T17:25:01.073Z,1.85
2019-03-23T17:30:01.103Z,1.32
2019-03-23T17:35:01.072Z,1.67
2019-03-23T17:40:01.142Z,1.49
2019-03-23T17:45:01.370Z,0.97
2019-03-23T17:50:01.047Z,0.98
2019-03-23T17:55:01.099Z,1.37
2019-03-23T18:00:01.115Z,1.14
2019-03-23T18:05:01.402Z,0.98
2019-03-23T18:10:01.035Z,1.12
2019-03-23T18:15:01.075Z,1.34
2019-03-23T18:20:01.103Z,1.11
2019-03-23T18:25:01.403Z,1.49
2019-03-23T18:30:01.074Z,1.63
2019-03-23T18:35:03.123Z,1.75
2019-03-23T18:40:01.103Z,1.33
2019-03-23T18:45:01.442Z,0.90
2019-03-23T18:50:01.095Z,0.75
2019-03-23T18:55:01.109Z,1.55
2019-03-23T19:00:01.515Z,0.89
2019-03-23T19:05:01.044Z,0.80
2019-03-23T19:10:01.079Z,0.97
2019-03-23T19:15:01.112Z,0.58
2019-03-23T19:20:01.125Z,0.56
2019-03-23T19:25:01.520Z,0.63
2019-03-23T19:30:01.085Z,1.27
2019-03-23T19:35:01.805Z,0.86
2019-03-23T19:40:03.064Z,0.58
2019-03-23T19:45:01.124Z,0.55
2019-03-23T19:50:01.179Z,0.89
2019-03-23T19:55:01.562Z,0.69
2019-03-23T20:00:01.140Z,0.72
2019-03-23T20:05:01.552Z,0.57
2019-03-23T20:10:01.081Z,0.58
2019-03-23T20:15:01.636Z,0.84
2019-03-23T20:20:01.160Z,0.42
2019-03-23T20:25:01.331Z,0.62
2019-03-23T20:30:01.118Z,0.12
2019-03-23T20:35:01.486Z,0.41
2019-03-23T20:40:01.107Z,1.00
2019-03-23T20:45:01.249Z,1.15
2019-03-23T20:50:01.111Z,0.77
2019-03-23T20:55:01.545Z,0.60
2019-03-23T21:00:01.063Z,0.53
2019-03-23T21:05:01.422Z,0.73
2019-03-23T21:10:01.143Z,0.90
2019-03-23T21:15:01.598Z,0.45
2019-03-23T21:20:01.089Z,1.25
2019-03-23T21:25:01.558Z,0.85
2019-03-23T21:30:01.159Z,0.30
2019-03-23T21:35:01.106Z,0.73
2019-03-23T21:40:01.106Z,0.96
2019-03-23T21:45:01.499Z,0.35
2019-03-23T21:50:01.077Z,0.66
2019-03-23T21:55:01.118Z,0.27
2019-03-23T22:00:01.128Z,0.40
2019-03-23T22:05:01.572Z,0.02
2019-03-23T22:10:01.062Z,0.11
2019-03-23T22:15:01.547Z,0.35
2019-03-23T22:20:01.411Z,0.58
2019-03-23T22:25:01.137Z,1.09
2019-03-23T22:30:01.140Z,0.22
2019-03-23T22:35:01.082Z,0.49
2019-03-23T22:40:01.561Z,0.69
2019-03-23T22:45:01.525Z,0.04
2019-03-23T22:50:01.080Z,0.05
2019-03-23T22:55:01.401Z,0.58
2019-03-23T23:00:01.107Z,0.52
